createdAt,value
2022-12-19T00:01:35.114Z,-2.10
2022-12-19T00:04:08.398Z,-2.10
2022-12-19T00:06:36.810Z,-2.10
2022-12-19T00:09:04.658Z,-2.10
2022-12-19T00:11:32.440Z,-2.10
2022-12-19T00:13:59.762Z,-2.10
2022-12-19T00:16:28.976Z,-2.10
2022-12-19T00:18:58.524Z,-2.10
2022-12-19T00:21:28.241Z,-2.00
2022-12-19T00:23:55.806Z,-2.00
2022-12-19T00:26:29.703Z,-2.00
2022-12-19T00:29:02.186Z,-2.00
2022-12-19T00:31:31.830Z,-2.00
2022-12-19T00:33:59.597Z,-2.00
2022-12-19T00:36:28.802Z,-2.00
2022-12-19T00:38:57.335Z,-2.00
2022-12-19T00:41:29.100Z,-2.00
2022-12-19T00:44:01.271Z,-2.00
2022-12-19T00:46:29.313Z,-2.00
2022-12-19T00:48:55.918Z,-2.00
2022-12-19T00:51:23.606Z,-1.90
2022-12-19T00:53:51.877Z,-2.00
2022-12-19T00:56:21.067Z,-1.90
2022-12-19T00:58:48.499Z,-1.90
2022-12-19T01:01:34.267Z,-1.90
2022-12-19T01:04:27.634Z,-1.90
2022-12-19T01:06:49.817Z,-1.90
2022-12-19T01:09:17.428Z,-1.80
2022-12-19T01:12:02.739Z,-1.90
2022-12-19T01:14:29.333Z,-1.80
2022-12-19T01:16:55.950Z,-1.80
2022-12-19T01:19:22.717Z,-1.80
2022-12-19T01:21:49.363Z,-1.80
2022-12-19T01:24:19.133Z,-1.70
2022-12-19T01:26:46.344Z,-1.70
2022-12-19T01:29:13.174Z,-1.70
2022-12-19T01:31:39.921Z,-1.70
2022-12-19T01:34:06.716Z,-1.70
2022-12-19T01:36:34.649Z,-1.60
2022-12-19T01:39:06.777Z,-1.60
2022-12-19T01:41:33.361Z,-1.60
2022-12-19T01:44:02.338Z,-1.60
2022-12-19T01:46:35.972Z,-1.60
2022-12-19T01:49:04.312Z,-1.60
2022-12-19T01:51:58.965Z,-1.60
2022-12-19T01:54:45.545Z,-1.60
2022-12-19T01:57:15.748Z,-1.60
2022-12-19T01:59:51.612Z,-1.60
2022-12-19T02:02:21.435Z,-1.60
2022-12-19T02:04:48.373Z,-1.70
2022-12-19T02:07:17.174Z,-1.60
2022-12-19T02:09:50.330Z,-1.60
2022-12-19T02:12:25.835Z,-1.60
2022-12-19T02:14:55.986Z,-1.60
2022-12-19T02:17:27.671Z,-1.60
2022-12-19T02:20:06.261Z,-1.60
2022-12-19T02:22:51.620Z,-1.60
2022-12-19T02:25:36.407Z,-1.60
2022-12-19T02:28:38.349Z,-1.60
2022-12-19T02:31:21.216Z,-1.60
2022-12-19T02:34:14.005Z,-1.60
2022-12-19T02:36:52.982Z,-1.60
2022-12-19T02:39:26.058Z,-1.50
2022-12-19T02:41:58.813Z,-1.50
2022-12-19T02:44:35.847Z,-1.60
2022-12-19T02:47:05.360Z,-1.60
2022-12-19T02:49:36.831Z,-1.60
2022-12-19T02:52:20.065Z,-1.60
2022-12-19T02:54:49.487Z,-1.60
2022-12-19T02:57:18.829Z,-1.60
2022-12-19T03:00:08.424Z,-1.60
2022-12-19T03:02:54.952Z,-1.60
2022-12-19T03:05:32.352Z,-1.60
2022-12-19T03:08:13.639Z,-1.60
2022-12-19T03:10:49.510Z,-1.60
2022-12-19T03:13:24.732Z,-1.60
2022-12-19T03:15:51.741Z,-1.60
2022-12-19T03:18:19.264Z,-1.70
2022-12-19T03:21:13.097Z,-1.70
2022-12-19T03:23:41.073Z,-1.70
2022-12-19T03:26:12.259Z,-1.70
2022-12-19T03:28:43.168Z,-1.70
2022-12-19T03:31:12.469Z,-1.70
2022-12-19T03:33:41.941Z,-1.70
2022-12-19T03:36:12.745Z,-1.70
2022-12-19T03:38:43.479Z,-1.70
2022-12-19T03:41:13.089Z,-1.70
2022-12-19T03:43:41.447Z,-1.70
2022-12-19T03:46:19.282Z,-1.70
2022-12-19T03:48:52.368Z,-1.70
2022-12-19T03:51:28.835Z,-1.70
2022-12-19T03:54:07.427Z,-1.70
2022-12-19T03:56:40.794Z,-1.70
2022-12-19T03:59:14.024Z,-1.70
2022-12-19T04:01:41.597Z,-1.70
2022-12-19T04:04:09.057Z,-1.60
2022-12-19T04:06:37.581Z,-1.70
2022-12-19T04:09:05.117Z,-1.70
2022-12-19T04:11:37.320Z,-1.70
2022-12-19T04:14:10.185Z,-1.70
2022-12-19T04:17:01.392Z,-1.70
2022-12-19T04:19:49.336Z,-1.70
2022-12-19T04:22:36.939Z,-1.70
2022-12-19T04:25:09.802Z,-1.70
2022-12-19T04:27:40.632Z,-1.60
2022-12-19T04:30:07.861Z,-1.60
2022-12-19T04:32:36.308Z,-1.60
2022-12-19T04:35:03.133Z,-1.60
2022-12-19T04:37:30.947Z,-1.60
2022-12-19T04:39:58.226Z,-1.60
2022-12-19T04:42:24.920Z,-1.50
2022-12-19T04:44:51.462Z,-1.50
2022-12-19T04:47:18.111Z,-1.50
2022-12-19T04:49:44.728Z,-1.50
2022-12-19T04:52:11.403Z,-1.50
2022-12-19T04:54:37.960Z,-1.40
2022-12-19T04:57:04.707Z,-1.40
2022-12-19T04:59:31.641Z,-1.40
2022-12-19T05:02:20.307Z,-1.40
2022-12-19T05:04:47.051Z,-1.40
2022-12-19T05:07:13.725Z,-1.30
2022-12-19T05:09:40.586Z,-1.30
2022-12-19T05:12:07.287Z,-1.30
2022-12-19T05:14:34.040Z,-1.20
2022-12-19T05:17:01.576Z,-1.20
2022-12-19T05:19:28.688Z,-1.20
2022-12-19T05:21:55.334Z,-1.10
2022-12-19T05:24:22.307Z,-1.10
2022-12-19T05:26:49.378Z,-1.00
2022-12-19T05:29:16.248Z,-1.00
2022-12-19T05:31:43.380Z,-1.00
2022-12-19T05:34:10.049Z,-0.90
2022-12-19T05:36:36.622Z,-0.90
2022-12-19T05:39:03.378Z,-0.90
2022-12-19T05:41:29.977Z,-0.80
2022-12-19T05:43:56.571Z,-0.80
2022-12-19T05:46:24.304Z,-0.80
2022-12-19T05:48:51.462Z,-0.80
2022-12-19T05:51:18.971Z,-0.70
2022-12-19T05:53:45.598Z,-0.70
2022-12-19T05:56:16.781Z,-0.70
2022-12-19T05:58:43.696Z,-0.70
2022-12-19T06:01:13.983Z,-0.70
2022-12-19T06:03:40.934Z,-0.70
2022-12-19T06:06:11.491Z,-0.70
2022-12-19T06:08:38.692Z,-0.70
2022-12-19T06:11:07.666Z,-0.70
2022-12-19T06:13:35.507Z,-0.70
2022-12-19T06:16:08.305Z,-0.70
2022-12-19T06:18:35.135Z,-0.70
2022-12-19T06:21:04.495Z,-0.60
2022-12-19T06:23:32.942Z,-0.70
2022-12-19T06:26:00.736Z,-0.70
2022-12-19T06:28:29.128Z,-0.60
2022-12-19T06:30:57.007Z,-0.70
2022-12-19T06:33:24.420Z,-0.70
2022-12-19T06:36:10.034Z,-0.60
2022-12-19T06:38:36.624Z,-0.60
2022-12-19T06:41:22.519Z,-0.60
2022-12-19T06:43:53.429Z,-0.50
2022-12-19T06:46:20.714Z,-0.50
2022-12-19T06:48:48.103Z,-0.50
2022-12-19T06:51:14.801Z,-0.50
2022-12-19T06:53:41.387Z,-0.50
2022-12-19T06:56:08.336Z,-0.40
2022-12-19T06:58:35.119Z,-0.40
2022-12-19T07:01:01.982Z,-0.40
2022-12-19T07:03:41.738Z,-0.40
2022-12-19T07:06:08.385Z,-0.30
2022-12-19T07:08:34.926Z,-0.30
2022-12-19T07:11:01.532Z,-0.30
2022-12-19T07:13:28.106Z,-0.20
2022-12-19T07:16:01.349Z,-0.20
2022-12-19T07:18:31.761Z,-0.10
2022-12-19T07:20:58.515Z,-0.10
2022-12-19T07:23:25.144Z,0.00
2022-12-19T07:25:51.789Z,0.00
2022-12-19T07:28:18.445Z,0.00
2022-12-19T07:30:45.274Z,0.00
2022-12-19T07:33:14.528Z,0.10
2022-12-19T07:35:43.743Z,0.10
2022-12-19T07:38:10.408Z,0.10
2022-12-19T07:40:37.073Z,0.10
2022-12-19T07:43:05.801Z,0.10
2022-12-19T07:45:33.373Z,0.10
2022-12-19T07:48:01.595Z,0.10
2022-12-19T07:50:29.505Z,0.10
2022-12-19T07:52:57.622Z,0.10
2022-12-19T07:55:24.914Z,0.10
2022-12-19T07:57:51.925Z,0.10
2022-12-19T08:00:18.794Z,0.10
2022-12-19T08:02:45.703Z,0.20
2022-12-19T08:05:12.602Z,0.20
2022-12-19T08:07:39.316Z,0.20
2022-12-19T08:10:06.869Z,0.20
2022-12-19T08:12:34.109Z,0.20
2022-12-19T08:15:00.783Z,0.20
2022-12-19T08:17:27.532Z,0.20
2022-12-19T08:19:54.353Z,0.20
2022-12-19T08:22:21.262Z,0.30
2022-12-19T08:24:48.272Z,0.30
2022-12-19T08:27:16.886Z,0.30
2022-12-19T08:29:44.041Z,0.30
2022-12-19T08:32:13.284Z,0.30
2022-12-19T08:34:44.042Z,0.30
2022-12-19T08:37:10.999Z,0.30
2022-12-19T08:39:37.766Z,0.30
2022-12-19T08:42:04.515Z,0.30
2022-12-19T08:44:31.419Z,0.40
2022-12-19T08:46:58.248Z,0.40
2022-12-19T08:49:25.199Z,0.40
2022-12-19T08:51:52.051Z,0.40
2022-12-19T08:54:18.817Z,0.50
2022-12-19T08:56:46.759Z,0.50
2022-12-19T08:59:23.577Z,0.50
2022-12-19T09:01:59.065Z,0.50
2022-12-19T09:05:57.367Z,0.50
2022-12-19T09:07:15.394Z,0.50
2022-12-19T09:09:43.307Z,0.60
2022-12-19T09:12:10.101Z,0.60
2022-12-19T09:14:36.836Z,0.60
2022-12-19T09:17:04.748Z,0.70
2022-12-19T09:19:31.950Z,0.70
2022-12-19T09:21:58.617Z,0.80
2022-12-19T09:24:25.291Z,0.80
2022-12-19T09:26:51.936Z,0.70
2022-12-19T09:29:21.191Z,0.70
2022-12-19T09:31:56.224Z,0.70
2022-12-19T09:34:33.088Z,0.70
2022-12-19T09:37:08.887Z,0.70
2022-12-19T09:39:37.019Z,0.80
2022-12-19T09:42:18.300Z,0.80
2022-12-19T09:45:09.999Z,0.80
2022-12-19T09:47:46.983Z,0.80
2022-12-19T09:51:10.257Z,0.80
2022-12-19T09:53:54.307Z,0.80
2022-12-19T09:56:24.037Z,0.80
2022-12-19T09:58:56.555Z,0.90
2022-12-19T10:01:30.725Z,1.00
2022-12-19T10:04:06.716Z,0.90
2022-12-19T10:07:20.545Z,0.90
2022-12-19T10:10:34.040Z,0.90
2022-12-19T10:12:37.335Z,0.90
2022-12-19T10:15:35.757Z,1.00
2022-12-19T10:18:18.295Z,1.00
2022-12-19T10:21:04.352Z,1.00
2022-12-19T10:23:46.451Z,1.00
2022-12-19T10:26:34.266Z,1.10
2022-12-19T10:29:44.101Z,1.10
2022-12-19T10:32:41.306Z,1.10
2022-12-19T10:35:18.348Z,1.10
2022-12-19T10:37:55.448Z,1.20
2022-12-19T10:40:30.636Z,1.20
2022-12-19T10:43:01.353Z,1.20
2022-12-19T10:45:46.995Z,1.20
2022-12-19T10:48:22.474Z,1.20
2022-12-19T10:50:57.140Z,1.20
2022-12-19T10:53:31.321Z,1.20
2022-12-19T10:56:21.186Z,1.20
2022-12-19T10:58:52.390Z,1.20
2022-12-19T11:01:39.076Z,1.20
2022-12-19T11:04:24.124Z,1.30
2022-12-19T11:07:04.699Z,1.30
2022-12-19T11:09:49.639Z,1.30
2022-12-19T11:16:10.502Z,1.30
2022-12-19T11:19:57.672Z,1.20
2022-12-19T11:27:09.803Z,1.20
2022-12-19T11:29:31.226Z,1.20
2022-12-19T11:30:41.123Z,1.30
2022-12-19T11:30:49.025Z,1.20
2022-12-19T11:32:40.982Z,1.30
2022-12-19T11:35:36.710Z,1.30
2022-12-19T11:38:08.309Z,1.30
2022-12-19T11:41:05.401Z,1.30
2022-12-19T11:44:02.091Z,1.40
2022-12-19T11:46:47.031Z,1.40
2022-12-19T11:49:13.637Z,1.40
2022-12-19T11:51:43.052Z,1.40
2022-12-19T11:54:26.425Z,1.40
2022-12-19T11:56:53.316Z,1.40
2022-12-19T11:59:24.959Z,1.40
2022-12-19T12:02:18.877Z,1.40
2022-12-19T12:04:45.580Z,1.40
2022-12-19T12:07:21.775Z,1.50
2022-12-19T12:12:30.788Z,1.50
2022-12-19T12:25:01.531Z,1.50
2022-12-19T12:31:00.547Z,1.50
2022-12-19T12:31:01.284Z,1.60
2022-12-19T12:31:55.330Z,1.50
2022-12-19T12:32:02.998Z,1.60
2022-12-19T12:32:04.830Z,1.60
2022-12-19T12:35:42.532Z,1.60
2022-12-19T12:38:24.519Z,1.60
2022-12-19T12:41:15.897Z,1.60
2022-12-19T12:43:58.546Z,1.50
2022-12-19T12:46:34.798Z,1.50
2022-12-19T12:49:05.268Z,1.50
2022-12-19T12:51:34.279Z,1.50
2022-12-19T12:54:11.099Z,1.50
2022-12-19T12:56:38.510Z,1.60
2022-12-19T12:59:29.793Z,1.60
2022-12-19T13:02:07.217Z,1.50
2022-12-19T13:04:36.002Z,1.60
2022-12-19T13:07:53.682Z,1.60
2022-12-19T13:10:23.733Z,1.50
2022-12-19T13:13:05.954Z,1.60
2022-12-19T13:15:45.787Z,1.60
2022-12-19T13:18:37.560Z,1.60
2022-12-19T13:21:05.581Z,1.60
2022-12-19T13:23:38.171Z,1.60
2022-12-19T13:26:19.960Z,1.60
2022-12-19T13:28:46.788Z,1.60
2022-12-19T13:31:20.727Z,1.70
2022-12-19T13:33:56.038Z,1.70
2022-12-19T13:39:50.859Z,1.70
2022-12-19T13:40:12.635Z,1.80
2022-12-19T13:43:34.117Z,1.70
2022-12-19T13:46:04.397Z,1.80
2022-12-19T13:48:41.423Z,1.80
2022-12-19T13:51:13.501Z,1.80
2022-12-19T13:53:42.577Z,1.80
2022-12-19T13:56:09.141Z,1.90
2022-12-19T13:58:44.825Z,1.90
2022-12-19T14:01:21.557Z,1.90
2022-12-19T14:03:50.210Z,1.90
2022-12-19T14:06:26.349Z,1.90
2022-12-19T14:09:37.353Z,1.90
2022-12-19T14:13:40.539Z,2.00
2022-12-19T14:14:58.001Z,2.00
2022-12-19T14:17:37.743Z,2.10
2022-12-19T14:22:02.580Z,2.20
2022-12-19T14:23:09.978Z,2.20
2022-12-19T14:28:16.785Z,2.30
2022-12-19T14:28:58.908Z,2.30
2022-12-19T14:31:26.649Z,2.40
2022-12-19T14:34:43.265Z,2.50
2022-12-19T14:36:55.331Z,2.60
2022-12-19T14:39:36.298Z,2.50
2022-12-19T14:42:49.282Z,2.60
2022-12-19T14:54:01.161Z,2.70
2022-12-19T14:54:06.400Z,2.70
2022-12-19T14:54:29.755Z,2.80
2022-12-19T14:57:25.327Z,2.80
2022-12-19T15:00:50.633Z,2.80
2022-12-19T15:03:16.508Z,2.90
2022-12-19T15:05:43.754Z,3.00
2022-12-19T15:08:11.982Z,3.10
2022-12-19T15:11:06.607Z,3.00
2022-12-19T15:14:47.629Z,3.10
2022-12-19T15:16:36.044Z,3.20
2022-12-19T15:19:05.479Z,3.20
2022-12-19T15:21:32.302Z,3.20
2022-12-19T15:23:58.909Z,3.20
2022-12-19T15:26:51.830Z,3.20
2022-12-19T15:29:22.091Z,3.20
2022-12-19T15:31:49.245Z,3.30
2022-12-19T15:34:48.334Z,3.30
2022-12-19T15:37:13.053Z,3.40
2022-12-19T15:39:40.200Z,3.30
2022-12-19T15:42:16.930Z,3.30
2022-12-19T15:44:44.453Z,3.30
2022-12-19T15:47:25.778Z,3.30
2022-12-19T15:49:52.395Z,3.30
2022-12-19T15:52:20.965Z,3.40
2022-12-19T15:54:50.059Z,3.40
2022-12-19T15:57:33.672Z,3.40
2022-12-19T16:00:03.871Z,3.40
2022-12-19T16:03:04.493Z,3.30
2022-12-19T16:05:20.484Z,3.20
2022-12-19T16:07:48.395Z,3.10
2022-12-19T16:10:16.169Z,3.00
2022-12-19T16:12:53.293Z,2.90
2022-12-19T16:15:31.497Z,2.80
2022-12-19T16:17:59.831Z,2.70
2022-12-19T16:20:28.851Z,2.70
2022-12-19T16:22:55.555Z,2.60
2022-12-19T16:25:25.693Z,2.60
2022-12-19T16:27:56.367Z,2.60
2022-12-19T16:30:31.433Z,2.60
2022-12-19T16:32:58.682Z,2.50
2022-12-19T16:36:03.160Z,2.50
2022-12-19T16:38:14.596Z,2.50
2022-12-19T16:40:41.590Z,2.50
2022-12-19T16:43:15.748Z,2.50
2022-12-19T16:45:43.245Z,2.50
2022-12-19T16:48:25.415Z,2.50
2022-12-19T16:50:52.330Z,2.50
2022-12-19T16:53:19.719Z,2.50
2022-12-19T16:55:48.833Z,2.50
2022-12-19T16:58:26.375Z,2.50
2022-12-19T17:00:55.100Z,2.50
2022-12-19T17:03:30.941Z,2.40
2022-12-19T17:05:57.656Z,2.50
2022-12-19T17:08:24.646Z,2.50
2022-12-19T17:10:53.336Z,2.40
2022-12-19T17:13:21.015Z,2.40
2022-12-19T17:15:56.758Z,2.40
2022-12-19T17:18:27.033Z,2.40
2022-12-19T17:20:53.636Z,2.40
2022-12-19T17:23:22.491Z,2.40
2022-12-19T17:25:49.735Z,2.40
2022-12-19T17:28:16.942Z,2.40
2022-12-19T17:30:48.780Z,2.40
2022-12-19T17:33:16.877Z,2.40
2022-12-19T17:35:45.050Z,2.40
2022-12-19T17:38:14.229Z,2.40
2022-12-19T17:40:41.656Z,2.50
2022-12-19T17:43:09.896Z,2.50
2022-12-19T17:45:36.523Z,2.50
2022-12-19T17:48:19.277Z,2.50
2022-12-19T17:50:45.909Z,2.50
2022-12-19T17:53:15.728Z,2.60
2022-12-19T17:55:42.710Z,2.60
2022-12-19T17:58:11.011Z,2.60
2022-12-19T18:00:39.281Z,2.60
2022-12-19T18:03:16.134Z,2.60
2022-12-19T18:05:42.989Z,2.60
2022-12-19T18:08:28.905Z,2.60
2022-12-19T18:11:01.793Z,2.60
2022-12-19T18:13:30.212Z,2.60
2022-12-19T18:16:02.144Z,2.80
2022-12-19T18:18:35.140Z,2.90
2022-12-19T18:21:02.536Z,3.00
2022-12-19T18:23:30.615Z,3.20
2022-12-19T18:26:01.949Z,3.20
2022-12-19T18:28:30.087Z,3.40
2022-12-19T18:31:04.605Z,3.30
2022-12-19T18:33:38.418Z,3.30
2022-12-19T18:36:06.388Z,3.20
2022-12-19T18:38:33.108Z,3.10
2022-12-19T18:40:59.845Z,3.00
2022-12-19T18:43:26.575Z,2.90
2022-12-19T18:45:53.724Z,2.90
2022-12-19T18:48:39.123Z,2.90
2022-12-19T18:51:06.075Z,2.80
2022-12-19T18:53:35.744Z,2.80
2022-12-19T18:56:04.372Z,2.80
2022-12-19T18:58:31.218Z,2.80
2022-12-19T19:00:59.873Z,2.80
2022-12-19T19:03:37.132Z,2.80
2022-12-19T19:06:06.522Z,2.80
2022-12-19T19:08:33.967Z,2.80
2022-12-19T19:11:01.248Z,2.80
2022-12-19T19:13:28.181Z,2.90
2022-12-19T19:15:56.996Z,2.90
2022-12-19T19:18:29.814Z,2.90
2022-12-19T19:21:01.043Z,3.00
2022-12-19T19:23:33.349Z,3.10
2022-12-19T19:26:00.143Z,3.10
2022-12-19T19:28:29.597Z,3.10
2022-12-19T19:30:57.341Z,3.10
2022-12-19T19:33:29.404Z,3.20
2022-12-19T19:36:03.562Z,3.20
2022-12-19T19:38:36.984Z,3.20
2022-12-19T19:41:04.223Z,3.20
2022-12-19T19:43:34.029Z,3.20
2022-12-19T19:46:02.291Z,3.20
2022-12-19T19:48:29.312Z,3.20
2022-12-19T19:50:56.806Z,3.20
2022-12-19T19:53:23.592Z,3.20
2022-12-19T19:55:59.615Z,3.20
2022-12-19T19:58:27.700Z,3.20
2022-12-19T20:00:54.607Z,3.20
2022-12-19T20:03:23.382Z,3.20
2022-12-19T20:05:50.839Z,3.20
2022-12-19T20:08:17.602Z,3.20
2022-12-19T20:10:44.357Z,3.20
2022-12-19T20:13:11.160Z,3.20
2022-12-19T20:15:42.984Z,3.20
2022-12-19T20:18:12.788Z,3.20
2022-12-19T20:20:39.664Z,3.20
2022-12-19T20:23:06.496Z,3.30
2022-12-19T20:25:35.671Z,3.30
2022-12-19T20:28:02.858Z,3.20
2022-12-19T20:30:29.515Z,3.20
2022-12-19T20:32:56.225Z,3.20
2022-12-19T20:35:23.607Z,3.20
2022-12-19T20:37:50.302Z,3.20
2022-12-19T20:40:16.990Z,3.20
2022-12-19T20:42:43.602Z,3.30
2022-12-19T20:45:10.269Z,3.30
2022-12-19T20:47:36.880Z,3.40
2022-12-19T20:50:03.902Z,3.30
2022-12-19T20:52:30.898Z,3.30
2022-12-19T20:54:57.545Z,3.30
2022-12-19T20:57:24.700Z,3.20
2022-12-19T20:59:51.366Z,3.30
2022-12-19T21:02:18.203Z,3.30
2022-12-19T21:04:44.911Z,3.30
2022-12-19T21:07:11.608Z,3.40
2022-12-19T21:09:38.316Z,3.30
2022-12-19T21:12:05.302Z,3.30
2022-12-19T21:14:31.937Z,3.40
2022-12-19T21:16:58.525Z,3.50
2022-12-19T21:19:25.379Z,3.60
2022-12-19T21:21:52.108Z,3.60
2022-12-19T21:24:19.243Z,3.70
2022-12-19T21:26:47.622Z,3.80
2022-12-19T21:29:14.290Z,3.90
2022-12-19T21:31:40.960Z,3.90
2022-12-19T21:34:07.752Z,3.90
2022-12-19T21:36:34.441Z,4.00
2022-12-19T21:39:02.280Z,4.00
2022-12-19T21:41:29.898Z,4.00
2022-12-19T21:43:56.701Z,4.00
2022-12-19T21:46:26.382Z,4.10
2022-12-19T21:48:55.015Z,4.10
2022-12-19T21:51:24.217Z,4.10
2022-12-19T21:54:00.730Z,4.10
2022-12-19T21:56:29.953Z,4.10
2022-12-19T21:58:58.929Z,4.10
2022-12-19T22:01:26.381Z,4.20
2022-12-19T22:03:57.554Z,4.20
2022-12-19T22:06:28.422Z,4.20
2022-12-19T22:08:55.569Z,4.20
2022-12-19T22:11:22.857Z,4.20
2022-12-19T22:13:50.468Z,4.30
2022-12-19T22:16:17.782Z,4.30
2022-12-19T22:18:45.043Z,4.30
2022-12-19T22:21:13.928Z,4.30
2022-12-19T22:23:40.763Z,4.30
2022-12-19T22:26:18.974Z,4.30
2022-12-19T22:28:47.849Z,4.40
2022-12-19T22:31:26.308Z,4.30
2022-12-19T22:34:15.216Z,4.30
2022-12-19T22:36:43.220Z,4.30
2022-12-19T22:39:13.004Z,4.20
2022-12-19T22:41:41.132Z,4.20
2022-12-19T22:44:09.291Z,4.20
2022-12-19T22:46:37.387Z,4.20
2022-12-19T22:49:06.996Z,4.20
2022-12-19T22:51:35.319Z,4.20
2022-12-19T22:54:02.605Z,4.20
2022-12-19T22:56:31.169Z,4.20
2022-12-19T22:59:01.491Z,4.30
2022-12-19T23:01:31.390Z,4.30
2022-12-19T23:04:00.242Z,4.20
2022-12-19T23:06:29.166Z,4.20
2022-12-19T23:08:56.052Z,4.30
2022-12-19T23:11:26.657Z,4.40
2022-12-19T23:13:53.469Z,4.40
2022-12-19T23:16:20.258Z,4.40
2022-12-19T23:18:47.022Z,4.40
2022-12-19T23:21:17.404Z,4.40
2022-12-19T23:23:46.477Z,4.40
2022-12-19T23:26:34.104Z,4.60
2022-12-19T23:29:04.520Z,4.70
2022-12-19T23:31:31.394Z,4.70
2022-12-19T23:33:59.039Z,4.70
2022-12-19T23:37:09.079Z,4.80
2022-12-19T23:39:13.458Z,4.80
2022-12-19T23:41:40.285Z,4.80
2022-12-19T23:44:08.126Z,4.80
2022-12-19T23:46:34.869Z,4.90
2022-12-19T23:49:01.537Z,4.90
2022-12-19T23:51:28.576Z,4.90
2022-12-19T23:53:55.976Z,4.90
2022-12-19T23:56:25.271Z,4.80
2022-12-19T23:58:52.514Z,4.80
